sensor_id;sensor_type;location;lat;lon;timestamp;P1;durP1;ratioP1;P2;durP2;ratioP2
4595;SDS011;2310;49.978;8.742;2023-06-14T00:02:12;9.83;;;8.83;;
4595;SDS011;2310;49.978;8.742;2023-06-14T00:06:14;10.70;;;9.67;;
4595;SDS011;2310;49.978;8.742;2023-06-14T00:10:15;9.53;;;8.67;;
4595;SDS011;2310;49.978;8.742;2023-06-14T00:14:18;10.27;;;9.33;;
4595;SDS011;2310;49.978;8.742;2023-06-14T00:18:19;9.53;;;7.97;;
4595;SDS011;2310;49.978;8.742;2023-06-14T00:22:20;10.97;;;9.73;;
4595;SDS011;2310;49.978;8.742;2023-06-14T00:26:22;9.87;;;8.90;;
4595;SDS011;2310;49.978;8.742;2023-06-14T00:30:24;8.90;;;8.00;;
4595;SDS011;2310;49.978;8.742;2023-06-14T00:34:26;11.90;;;8.43;;
4595;SDS011;2310;49.978;8.742;2023-06-14T00:38:27;9.97;;;9.07;;
4595;SDS011;2310;49.978;8.742;2023-06-14T00:42:29;9.57;;;8.63;;
4595;SDS011;2310;49.978;8.742;2023-06-14T00:46:30;9.50;;;8.60;;
4595;SDS011;2310;49.978;8.742;2023-06-14T00:50:32;9.37;;;8.43;;
4595;SDS011;2310;49.978;8.742;2023-06-14T00:54:34;9.60;;;8.60;;
4595;SDS011;2310;49.978;8.742;2023-06-14T00:58:35;9.03;;;8.13;;
4595;SDS011;2310;49.978;8.742;2023-06-14T01:02:37;10.20;;;8.70;;
4595;SDS011;2310;49.978;8.742;2023-06-14T01:07:00;9.10;;;8.17;;
4595;SDS011;2310;49.978;8.742;2023-06-14T01:11:15;8.80;;;7.90;;
4595;SDS011;2310;49.978;8.742;2023-06-14T01:15:17;10.57;;;8.50;;
4595;SDS011;2310;49.978;8.742;2023-06-14T01:19:21;10.83;;;8.50;;
4595;SDS011;2310;49.978;8.742;2023-06-14T01:23:25;9.77;;;8.77;;
4595;SDS011;2310;49.978;8.742;2023-06-14T01:27:28;9.27;;;8.30;;
4595;SDS011;2310;49.978;8.742;2023-06-14T01:31:30;8.53;;;7.73;;
4595;SDS011;2310;49.978;8.742;2023-06-14T01:35:36;9.80;;;8.80;;
4595;SDS011;2310;49.978;8.742;2023-06-14T01:39:37;9.87;;;8.87;;
4595;SDS011;2310;49.978;8.742;2023-06-14T01:43:39;10.10;;;8.13;;
4595;SDS011;2310;49.978;8.742;2023-06-14T01:47:43;9.80;;;8.80;;
4595;SDS011;2310;49.978;8.742;2023-06-14T01:51:46;9.40;;;8.53;;
4595;SDS011;2310;49.978;8.742;2023-06-14T01:55:47;9.20;;;8.20;;
4595;SDS011;2310;49.978;8.742;2023-06-14T01:59:49;13.93;;;7.93;;
4595;SDS011;2310;49.978;8.742;2023-06-14T02:03:51;8.93;;;7.70;;
4595;SDS011;2310;49.978;8.742;2023-06-14T02:07:54;8.13;;;7.33;;
4595;SDS011;2310;49.978;8.742;2023-06-14T02:11:56;10.23;;;7.40;;
4595;SDS011;2310;49.978;8.742;2023-06-14T02:15:57;8.53;;;7.73;;
4595;SDS011;2310;49.978;8.742;2023-06-14T02:19:58;10.77;;;8.93;;
4595;SDS011;2310;49.978;8.742;2023-06-14T02:24:00;8.93;;;7.20;;
4595;SDS011;2310;49.978;8.742;2023-06-14T02:28:02;8.93;;;7.33;;
4595;SDS011;2310;49.978;8.742;2023-06-14T02:32:06;9.27;;;8.30;;
4595;SDS011;2310;49.978;8.742;2023-06-14T02:36:08;8.10;;;7.13;;
4595;SDS011;2310;49.978;8.742;2023-06-14T02:40:10;9.20;;;8.20;;
4595;SDS011;2310;49.978;8.742;2023-06-14T02:44:13;9.13;;;7.83;;
4595;SDS011;2310;49.978;8.742;2023-06-14T02:48:14;9.17;;;7.80;;
4595;SDS011;2310;49.978;8.742;2023-06-14T02:52:16;8.03;;;7.20;;
4595;SDS011;2310;49.978;8.742;2023-06-14T02:56:18;8.57;;;7.67;;
4595;SDS011;2310;49.978;8.742;2023-06-14T03:00:20;7.90;;;7.10;;
4595;SDS011;2310;49.978;8.742;2023-06-14T03:04:21;8.03;;;6.47;;
4595;SDS011;2310;49.978;8.742;2023-06-14T03:08:23;11.30;;;7.40;;
4595;SDS011;2310;49.978;8.742;2023-06-14T03:12:26;6.70;;;5.83;;
4595;SDS011;2310;49.978;8.742;2023-06-14T03:16:27;8.40;;;6.57;;
4595;SDS011;2310;49.978;8.742;2023-06-14T03:20:30;9.33;;;7.50;;
4595;SDS011;2310;49.978;8.742;2023-06-14T03:24:34;8.67;;;6.67;;
4595;SDS011;2310;49.978;8.742;2023-06-14T03:28:37;7.43;;;6.60;;
4595;SDS011;2310;49.978;8.742;2023-06-14T03:32:38;8.80;;;6.50;;
4595;SDS011;2310;49.978;8.742;2023-06-14T03:36:40;8.70;;;6.60;;
4595;SDS011;2310;49.978;8.742;2023-06-14T03:40:41;7.87;;;6.87;;
4595;SDS011;2310;49.978;8.742;2023-06-14T03:44:43;7.33;;;6.63;;
4595;SDS011;2310;49.978;8.742;2023-06-14T03:48:45;11.37;;;7.20;;
4595;SDS011;2310;49.978;8.742;2023-06-14T03:52:48;9.90;;;7.87;;
4595;SDS011;2310;49.978;8.742;2023-06-14T03:56:50;9.23;;;6.70;;
4595;SDS011;2310;49.978;8.742;2023-06-14T04:00:51;8.87;;;7.43;;
4595;SDS011;2310;49.978;8.742;2023-06-14T04:04:54;11.03;;;7.10;;
4595;SDS011;2310;49.978;8.742;2023-06-14T04:08:56;8.27;;;6.70;;
4595;SDS011;2310;49.978;8.742;2023-06-14T04:12:58;10.10;;;7.40;;
4595;SDS011;2310;49.978;8.742;2023-06-14T04:16:59;8.70;;;7.63;;
4595;SDS011;2310;49.978;8.742;2023-06-14T04:21:00;9.17;;;7.23;;
4595;SDS011;2310;49.978;8.742;2023-06-14T04:25:02;8.13;;;7.10;;
4595;SDS011;2310;49.978;8.742;2023-06-14T04:29:06;10.60;;;7.37;;
4595;SDS011;2310;49.978;8.742;2023-06-14T04:33:07;10.03;;;7.50;;
4595;SDS011;2310;49.978;8.742;2023-06-14T04:37:11;7.47;;;6.67;;
4595;SDS011;2310;49.978;8.742;2023-06-14T04:41:12;9.00;;;6.93;;
4595;SDS011;2310;49.978;8.742;2023-06-14T04:45:14;10.33;;;6.60;;
4595;SDS011;2310;49.978;8.742;2023-06-14T04:49:16;7.53;;;6.50;;
4595;SDS011;2310;49.978;8.742;2023-06-14T04:53:19;10.37;;;6.77;;
4595;SDS011;2310;49.978;8.742;2023-06-14T04:57:23;8.63;;;6.80;;
4595;SDS011;2310;49.978;8.742;2023-06-14T05:01:26;9.03;;;6.83;;
4595;SDS011;2310;49.978;8.742;2023-06-14T05:05:28;8.93;;;6.50;;
4595;SDS011;2310;49.978;8.742;2023-06-14T05:09:29;7.77;;;6.67;;
4595;SDS011;2310;49.978;8.742;2023-06-14T05:13:31;9.33;;;6.70;;
4595;SDS011;2310;49.978;8.742;2023-06-14T05:17:34;10.10;;;7.50;;
4595;SDS011;2310;49.978;8.742;2023-06-14T05:21:37;8.00;;;7.20;;
4595;SDS011;2310;49.978;8.742;2023-06-14T05:25:41;6.70;;;5.87;;
4595;SDS011;2310;49.978;8.742;2023-06-14T05:29:44;8.63;;;7.00;;
4595;SDS011;2310;49.978;8.742;2023-06-14T05:33:45;9.90;;;6.40;;
4595;SDS011;2310;49.978;8.742;2023-06-14T05:37:47;7.27;;;6.27;;
4595;SDS011;2310;49.978;8.742;2023-06-14T05:41:49;8.47;;;6.73;;
4595;SDS011;2310;49.978;8.742;2023-06-14T05:45:51;9.60;;;6.87;;
4595;SDS011;2310;49.978;8.742;2023-06-14T05:49:53;10.10;;;7.10;;
4595;SDS011;2310;49.978;8.742;2023-06-14T05:53:55;7.30;;;6.30;;
4595;SDS011;2310;49.978;8.742;2023-06-14T05:57:57;9.27;;;7.23;;
4595;SDS011;2310;49.978;8.742;2023-06-14T06:01:58;8.07;;;7.23;;
4595;SDS011;2310;49.978;8.742;2023-06-14T06:06:00;12.50;;;7.00;;
4595;SDS011;2310;49.978;8.742;2023-06-14T06:10:02;7.90;;;6.77;;
4595;SDS011;2310;49.978;8.742;2023-06-14T06:14:03;8.17;;;7.37;;
4595;SDS011;2310;49.978;8.742;2023-06-14T06:18:04;9.07;;;6.77;;
4595;SDS011;2310;49.978;8.742;2023-06-14T06:22:06;10.03;;;6.70;;
4595;SDS011;2310;49.978;8.742;2023-06-14T06:26:07;9.70;;;6.67;;
4595;SDS011;2310;49.978;8.742;2023-06-14T06:30:09;9.80;;;7.40;;
4595;SDS011;2310;49.978;8.742;2023-06-14T06:34:11;6.33;;;5.70;;
4595;SDS011;2310;49.978;8.742;2023-06-14T06:38:12;7.70;;;6.90;;
4595;SDS011;2310;49.978;8.742;2023-06-14T06:42:14;8.30;;;6.20;;
4595;SDS011;2310;49.978;8.742;2023-06-14T06:46:16;7.17;;;6.40;;
4595;SDS011;2310;49.978;8.742;2023-06-14T06:50:19;6.60;;;5.80;;
4595;SDS011;2310;49.978;8.742;2023-06-14T06:54:21;8.20;;;7.00;;
4595;SDS011;2310;49.978;8.742;2023-06-14T06:58:22;8.23;;;6.60;;
4595;SDS011;2310;49.978;8.742;2023-06-14T07:02:24;9.00;;;6.87;;
4595;SDS011;2310;49.978;8.742;2023-06-14T07:06:26;6.20;;;5.60;;
4595;SDS011;2310;49.978;8.742;2023-06-14T07:10:28;7.17;;;6.10;;
4595;SDS011;2310;49.978;8.742;2023-06-14T07:14:29;7.37;;;5.93;;
4595;SDS011;2310;49.978;8.742;2023-06-14T07:18:31;8.83;;;6.50;;
4595;SDS011;2310;49.978;8.742;2023-06-14T07:22:32;8.33;;;5.47;;
4595;SDS011;2310;49.978;8.742;2023-06-14T07:26:34;8.37;;;7.07;;
4595;SDS011;2310;49.978;8.742;2023-06-14T07:30:36;9.10;;;5.90;;
4595;SDS011;2310;49.978;8.742;2023-06-14T07:34:38;9.10;;;6.50;;
4595;SDS011;2310;49.978;8.742;2023-06-14T07:38:39;6.40;;;5.20;;
4595;SDS011;2310;49.978;8.742;2023-06-14T07:42:41;8.43;;;6.60;;
4595;SDS011;2310;49.978;8.742;2023-06-14T07:46:43;6.90;;;5.27;;
4595;SDS011;2310;49.978;8.742;2023-06-14T07:50:44;7.10;;;5.23;;
4595;SDS011;2310;49.978;8.742;2023-06-14T07:54:45;7.30;;;5.97;;
4595;SDS011;2310;49.978;8.742;2023-06-14T07:58:47;7.47;;;5.30;;
4595;SDS011;2310;49.978;8.742;2023-06-14T08:02:49;7.00;;;4.80;;
4595;SDS011;2310;49.978;8.742;2023-06-14T08:06:54;6.87;;;4.80;;
4595;SDS011;2310;49.978;8.742;2023-06-14T08:10:56;6.77;;;4.70;;
4595;SDS011;2310;49.978;8.742;2023-06-14T08:14:58;9.17;;;4.70;;
4595;SDS011;2310;49.978;8.742;2023-06-14T08:19:02;10.00;;;4.60;;
4595;SDS011;2310;49.978;8.742;2023-06-14T08:23:03;8.77;;;5.40;;
4595;SDS011;2310;49.978;8.742;2023-06-14T08:27:05;8.37;;;3.93;;
4595;SDS011;2310;49.978;8.742;2023-06-14T08:31:08;6.60;;;3.60;;
4595;SDS011;2310;49.978;8.742;2023-06-14T08:35:10;4.63;;;3.23;;
4595;SDS011;2310;49.978;8.742;2023-06-14T08:39:13;5.87;;;3.37;;
4595;SDS011;2310;49.978;8.742;2023-06-14T08:43:19;4.47;;;3.33;;
4595;SDS011;2310;49.978;8.742;2023-06-14T08:47:20;4.97;;;3.30;;
4595;SDS011;2310;49.978;8.742;2023-06-14T08:51:22;7.00;;;3.80;;
4595;SDS011;2310;49.978;8.742;2023-06-14T08:55:28;4.00;;;3.07;;
4595;SDS011;2310;49.978;8.742;2023-06-14T08:59:33;5.67;;;3.27;;
4595;SDS011;2310;49.978;8.742;2023-06-14T09:03:36;4.77;;;2.93;;
4595;SDS011;2310;49.978;8.742;2023-06-14T09:07:40;11.13;;;3.70;;
4595;SDS011;2310;49.978;8.742;2023-06-14T09:11:43;8.40;;;3.57;;
4595;SDS011;2310;49.978;8.742;2023-06-14T09:15:44;5.43;;;2.80;;
4595;SDS011;2310;49.978;8.742;2023-06-14T09:19:46;7.60;;;3.77;;
4595;SDS011;2310;49.978;8.742;2023-06-14T09:23:47;3.60;;;2.70;;
4595;SDS011;2310;49.978;8.742;2023-06-14T09:27:49;4.50;;;3.00;;
4595;SDS011;2310;49.978;8.742;2023-06-14T09:31:52;4.60;;;3.67;;
4595;SDS011;2310;49.978;8.742;2023-06-14T09:35:56;4.50;;;3.37;;
4595;SDS011;2310;49.978;8.742;2023-06-14T09:39:57;5.63;;;3.43;;
4595;SDS011;2310;49.978;8.742;2023-06-14T09:44:00;6.20;;;3.83;;
4595;SDS011;2310;49.978;8.742;2023-06-14T09:48:06;4.50;;;3.10;;
4595;SDS011;2310;49.978;8.742;2023-06-14T09:52:17;8.07;;;3.50;;
4595;SDS011;2310;49.978;8.742;2023-06-14T09:56:17;4.97;;;3.63;;
4595;SDS011;2310;49.978;8.742;2023-06-14T10:00:21;6.30;;;3.50;;
4595;SDS011;2310;49.978;8.742;2023-06-14T10:04:25;6.10;;;3.70;;
4595;SDS011;2310;49.978;8.742;2023-06-14T10:08:29;6.70;;;3.93;;
4595;SDS011;2310;49.978;8.742;2023-06-14T10:12:34;5.90;;;3.47;;
4595;SDS011;2310;49.978;8.742;2023-06-14T10:16:50;4.30;;;3.50;;
4595;SDS011;2310;49.978;8.742;2023-06-14T10:25:07;5.10;;;3.60;;
4595;SDS011;2310;49.978;8.742;2023-06-14T10:29:10;4.47;;;3.20;;
4595;SDS011;2310;49.978;8.742;2023-06-14T10:33:12;6.30;;;3.30;;
4595;SDS011;2310;49.978;8.742;2023-06-14T10:37:16;5.90;;;3.03;;
4595;SDS011;2310;49.978;8.742;2023-06-14T10:41:17;5.93;;;2.93;;
4595;SDS011;2310;49.978;8.742;2023-06-14T10:45:19;4.63;;;3.23;;
4595;SDS011;2310;49.978;8.742;2023-06-14T10:49:43;4.60;;;3.73;;
4595;SDS011;2310;49.978;8.742;2023-06-14T10:53:47;4.83;;;2.70;;
4595;SDS011;2310;49.978;8.742;2023-06-14T10:57:50;4.50;;;2.83;;
4595;SDS011;2310;49.978;8.742;2023-06-14T11:02:06;4.77;;;2.80;;
4595;SDS011;2310;49.978;8.742;2023-06-14T11:06:12;4.97;;;3.30;;
4595;SDS011;2310;49.978;8.742;2023-06-14T11:10:19;4.30;;;3.00;;
4595;SDS011;2310;49.978;8.742;2023-06-14T11:14:36;5.10;;;3.70;;
4595;SDS011;2310;49.978;8.742;2023-06-14T11:18:37;5.40;;;2.67;;
4595;SDS011;2310;49.978;8.742;2023-06-14T11:22:41;4.17;;;2.80;;
4595;SDS011;2310;49.978;8.742;2023-06-14T11:26:46;5.07;;;3.40;;
4595;SDS011;2310;49.978;8.742;2023-06-14T11:30:48;3.90;;;2.50;;
4595;SDS011;2310;49.978;8.742;2023-06-14T11:34:52;6.53;;;3.23;;
4595;SDS011;2310;49.978;8.742;2023-06-14T11:43:07;5.07;;;2.90;;
4595;SDS011;2310;49.978;8.742;2023-06-14T11:47:09;5.20;;;3.87;;
4595;SDS011;2310;49.978;8.742;2023-06-14T11:51:10;5.53;;;3.90;;
4595;SDS011;2310;49.978;8.742;2023-06-14T11:55:12;5.73;;;3.87;;
4595;SDS011;2310;49.978;8.742;2023-06-14T11:59:14;5.30;;;4.00;;
4595;SDS011;2310;49.978;8.742;2023-06-14T12:03:15;9.00;;;4.57;;
4595;SDS011;2310;49.978;8.742;2023-06-14T12:07:17;8.70;;;4.67;;
4595;SDS011;2310;49.978;8.742;2023-06-14T12:11:20;10.77;;;4.90;;
4595;SDS011;2310;49.978;8.742;2023-06-14T12:15:22;5.67;;;4.40;;
4595;SDS011;2310;49.978;8.742;2023-06-14T12:19:25;6.57;;;4.30;;
4595;SDS011;2310;49.978;8.742;2023-06-14T12:23:38;6.37;;;4.40;;
4595;SDS011;2310;49.978;8.742;2023-06-14T12:27:33;6.10;;;4.50;;
4595;SDS011;2310;49.978;8.742;2023-06-14T12:31:35;10.00;;;4.93;;
4595;SDS011;2310;49.978;8.742;2023-06-14T12:35:36;5.20;;;4.10;;
4595;SDS011;2310;49.978;8.742;2023-06-14T12:39:42;5.40;;;4.53;;
4595;SDS011;2310;49.978;8.742;2023-06-14T12:43:43;5.00;;;4.07;;
4595;SDS011;2310;49.978;8.742;2023-06-14T12:52:01;5.90;;;4.60;;
4595;SDS011;2310;49.978;8.742;2023-06-14T12:56:03;8.13;;;3.47;;
4595;SDS011;2310;49.978;8.742;2023-06-14T13:00:05;7.00;;;4.07;;
4595;SDS011;2310;49.978;8.742;2023-06-14T13:04:08;5.23;;;3.60;;
4595;SDS011;2310;49.978;8.742;2023-06-14T13:08:10;5.83;;;4.23;;
4595;SDS011;2310;49.978;8.742;2023-06-14T13:12:11;8.73;;;3.97;;
4595;SDS011;2310;49.978;8.742;2023-06-14T13:16:13;5.10;;;3.67;;
4595;SDS011;2310;49.978;8.742;2023-06-14T13:20:15;5.53;;;3.40;;
4595;SDS011;2310;49.978;8.742;2023-06-14T13:24:19;5.83;;;4.20;;
4595;SDS011;2310;49.978;8.742;2023-06-14T13:28:21;10.87;;;4.07;;
4595;SDS011;2310;49.978;8.742;2023-06-14T13:32:23;5.97;;;3.87;;
4595;SDS011;2310;49.978;8.742;2023-06-14T13:36:25;6.37;;;4.20;;
4595;SDS011;2310;49.978;8.742;2023-06-14T13:40:26;14.40;;;4.63;;
4595;SDS011;2310;49.978;8.742;2023-06-14T13:44:28;9.03;;;3.90;;
4595;SDS011;2310;49.978;8.742;2023-06-14T13:48:29;5.70;;;4.40;;
4595;SDS011;2310;49.978;8.742;2023-06-14T13:52:31;12.13;;;4.10;;
4595;SDS011;2310;49.978;8.742;2023-06-14T13:56:32;6.10;;;4.20;;
4595;SDS011;2310;49.978;8.742;2023-06-14T14:00:34;4.67;;;3.60;;
4595;SDS011;2310;49.978;8.742;2023-06-14T14:04:38;6.73;;;3.77;;
4595;SDS011;2310;49.978;8.742;2023-06-14T14:08:40;5.40;;;3.20;;
4595;SDS011;2310;49.978;8.742;2023-06-14T14:12:42;5.40;;;3.37;;
4595;SDS011;2310;49.978;8.742;2023-06-14T14:16:43;4.97;;;3.50;;
4595;SDS011;2310;49.978;8.742;2023-06-14T14:20:45;7.87;;;3.47;;
4595;SDS011;2310;49.978;8.742;2023-06-14T14:24:48;5.67;;;4.07;;
4595;SDS011;2310;49.978;8.742;2023-06-14T14:28:49;5.60;;;3.30;;
4595;SDS011;2310;49.978;8.742;2023-06-14T14:32:51;5.43;;;4.03;;
4595;SDS011;2310;49.978;8.742;2023-06-14T14:36:53;5.93;;;3.33;;
4595;SDS011;2310;49.978;8.742;2023-06-14T14:40:55;8.30;;;2.93;;
4595;SDS011;2310;49.978;8.742;2023-06-14T14:44:56;4.40;;;3.30;;
4595;SDS011;2310;49.978;8.742;2023-06-14T14:49:00;3.80;;;2.70;;
4595;SDS011;2310;49.978;8.742;2023-06-14T14:53:02;4.10;;;2.97;;
4595;SDS011;2310;49.978;8.742;2023-06-14T14:57:03;4.90;;;3.57;;
4595;SDS011;2310;49.978;8.742;2023-06-14T15:01:05;4.50;;;2.67;;
4595;SDS011;2310;49.978;8.742;2023-06-14T15:05:09;6.27;;;3.53;;
4595;SDS011;2310;49.978;8.742;2023-06-14T15:09:10;6.30;;;3.73;;
4595;SDS011;2310;49.978;8.742;2023-06-14T15:13:11;5.60;;;3.37;;
4595;SDS011;2310;49.978;8.742;2023-06-14T15:17:13;6.23;;;4.00;;
4595;SDS011;2310;49.978;8.742;2023-06-14T15:21:16;4.40;;;3.13;;
4595;SDS011;2310;49.978;8.742;2023-06-14T15:25:20;4.03;;;3.17;;
4595;SDS011;2310;49.978;8.742;2023-06-14T15:29:22;5.00;;;3.43;;
4595;SDS011;2310;49.978;8.742;2023-06-14T15:33:23;4.97;;;3.47;;
4595;SDS011;2310;49.978;8.742;2023-06-14T15:37:24;4.70;;;3.10;;
4595;SDS011;2310;49.978;8.742;2023-06-14T15:41:26;4.83;;;2.97;;
4595;SDS011;2310;49.978;8.742;2023-06-14T15:45:27;4.60;;;3.40;;
4595;SDS011;2310;49.978;8.742;2023-06-14T15:49:29;4.43;;;3.13;;
4595;SDS011;2310;49.978;8.742;2023-06-14T15:53:30;4.90;;;3.50;;
4595;SDS011;2310;49.978;8.742;2023-06-14T15:57:32;5.30;;;3.53;;
4595;SDS011;2310;49.978;8.742;2023-06-14T16:01:33;4.97;;;3.00;;
4595;SDS011;2310;49.978;8.742;2023-06-14T16:05:34;5.40;;;4.10;;
4595;SDS011;2310;49.978;8.742;2023-06-14T16:09:36;5.53;;;3.67;;
4595;SDS011;2310;49.978;8.742;2023-06-14T16:13:40;4.00;;;3.30;;
4595;SDS011;2310;49.978;8.742;2023-06-14T16:17:42;5.23;;;3.20;;
4595;SDS011;2310;49.978;8.742;2023-06-14T16:21:43;4.57;;;3.63;;
4595;SDS011;2310;49.978;8.742;2023-06-14T16:25:45;6.37;;;3.67;;
4595;SDS011;2310;49.978;8.742;2023-06-14T16:29:46;4.80;;;3.10;;
4595;SDS011;2310;49.978;8.742;2023-06-14T16:33:48;6.23;;;3.73;;
4595;SDS011;2310;49.978;8.742;2023-06-14T16:37:52;4.93;;;3.83;;
4595;SDS011;2310;49.978;8.742;2023-06-14T16:41:53;4.30;;;3.40;;
4595;SDS011;2310;49.978;8.742;2023-06-14T16:45:55;5.77;;;4.47;;
4595;SDS011;2310;49.978;8.742;2023-06-14T16:49:56;4.40;;;3.50;;
4595;SDS011;2310;49.978;8.742;2023-06-14T16:53:57;4.63;;;3.30;;
4595;SDS011;2310;49.978;8.742;2023-06-14T16:57:59;6.50;;;3.23;;
4595;SDS011;2310;49.978;8.742;2023-06-14T17:02:01;4.40;;;3.60;;
4595;SDS011;2310;49.978;8.742;2023-06-14T17:06:08;6.83;;;4.03;;
4595;SDS011;2310;49.978;8.742;2023-06-14T17:10:10;4.30;;;3.00;;
4595;SDS011;2310;49.978;8.742;2023-06-14T17:14:12;6.20;;;4.10;;
4595;SDS011;2310;49.978;8.742;2023-06-14T17:18:13;5.70;;;3.83;;
4595;SDS011;2310;49.978;8.742;2023-06-14T17:22:15;4.17;;;3.27;;
4595;SDS011;2310;49.978;8.742;2023-06-14T17:26:16;4.90;;;3.43;;
4595;SDS011;2310;49.978;8.742;2023-06-14T17:30:18;5.23;;;3.93;;
4595;SDS011;2310;49.978;8.742;2023-06-14T17:34:19;4.50;;;3.87;;
4595;SDS011;2310;49.978;8.742;2023-06-14T17:38:21;5.20;;;3.80;;
4595;SDS011;2310;49.978;8.742;2023-06-14T17:42:22;4.37;;;3.50;;
4595;SDS011;2310;49.978;8.742;2023-06-14T17:46:24;4.43;;;3.47;;
4595;SDS011;2310;49.978;8.742;2023-06-14T17:50:25;4.60;;;3.90;;
4595;SDS011;2310;49.978;8.742;2023-06-14T17:54:27;4.47;;;3.80;;
4595;SDS011;2310;49.978;8.742;2023-06-14T17:58:28;7.93;;;4.00;;
4595;SDS011;2310;49.978;8.742;2023-06-14T18:02:30;7.93;;;4.47;;
4595;SDS011;2310;49.978;8.742;2023-06-14T18:06:32;8.53;;;4.70;;
4595;SDS011;2310;49.978;8.742;2023-06-14T18:10:36;7.70;;;5.00;;
4595;SDS011;2310;49.978;8.742;2023-06-14T18:14:38;5.83;;;4.93;;
4595;SDS011;2310;49.978;8.742;2023-06-14T18:18:40;6.40;;;4.47;;
4595;SDS011;2310;49.978;8.742;2023-06-14T18:22:42;9.53;;;4.90;;
4595;SDS011;2310;49.978;8.742;2023-06-14T18:26:43;5.33;;;4.23;;
4595;SDS011;2310;49.978;8.742;2023-06-14T18:30:45;5.63;;;4.57;;
4595;SDS011;2310;49.978;8.742;2023-06-14T18:34:47;6.70;;;4.83;;
4595;SDS011;2310;49.978;8.742;2023-06-14T18:38:50;6.30;;;4.80;;
4595;SDS011;2310;49.978;8.742;2023-06-14T18:42:51;4.27;;;3.80;;
4595;SDS011;2310;49.978;8.742;2023-06-14T18:46:53;7.13;;;4.40;;
4595;SDS011;2310;49.978;8.742;2023-06-14T18:50:54;6.70;;;4.50;;
4595;SDS011;2310;49.978;8.742;2023-06-14T18:54:56;5.63;;;4.50;;
4595;SDS011;2310;49.978;8.742;2023-06-14T18:58:57;5.17;;;4.40;;
4595;SDS011;2310;49.978;8.742;2023-06-14T19:02:59;5.70;;;4.17;;
4595;SDS011;2310;49.978;8.742;2023-06-14T19:07:01;6.60;;;4.90;;
4595;SDS011;2310;49.978;8.742;2023-06-14T19:11:02;7.00;;;4.70;;
4595;SDS011;2310;49.978;8.742;2023-06-14T19:15:04;6.13;;;4.20;;
4595;SDS011;2310;49.978;8.742;2023-06-14T19:19:07;6.23;;;5.00;;
4595;SDS011;2310;49.978;8.742;2023-06-14T19:23:08;6.37;;;4.50;;
4595;SDS011;2310;49.978;8.742;2023-06-14T19:27:10;5.13;;;4.33;;
4595;SDS011;2310;49.978;8.742;2023-06-14T19:31:12;5.97;;;4.70;;
4595;SDS011;2310;49.978;8.742;2023-06-14T19:35:14;4.90;;;4.40;;
4595;SDS011;2310;49.978;8.742;2023-06-14T19:39:15;8.03;;;4.87;;
4595;SDS011;2310;49.978;8.742;2023-06-14T19:43:17;5.87;;;4.67;;
4595;SDS011;2310;49.978;8.742;2023-06-14T19:47:19;7.60;;;5.30;;
4595;SDS011;2310;49.978;8.742;2023-06-14T19:51:20;7.30;;;5.67;;
4595;SDS011;2310;49.978;8.742;2023-06-14T19:55:22;5.57;;;4.90;;
4595;SDS011;2310;49.978;8.742;2023-06-14T19:59:25;8.03;;;4.60;;
4595;SDS011;2310;49.978;8.742;2023-06-14T20:03:27;7.30;;;5.13;;
4595;SDS011;2310;49.978;8.742;2023-06-14T20:07:28;5.60;;;5.00;;
4595;SDS011;2310;49.978;8.742;2023-06-14T20:11:32;5.53;;;5.00;;
4595;SDS011;2310;49.978;8.742;2023-06-14T20:15:34;5.60;;;4.47;;
4595;SDS011;2310;49.978;8.742;2023-06-14T20:19:38;5.90;;;4.30;;
4595;SDS011;2310;49.978;8.742;2023-06-14T20:23:39;7.30;;;4.70;;
4595;SDS011;2310;49.978;8.742;2023-06-14T20:27:41;5.80;;;4.40;;
4595;SDS011;2310;49.978;8.742;2023-06-14T20:31:43;8.90;;;5.33;;
4595;SDS011;2310;49.978;8.742;2023-06-14T20:35:44;6.67;;;4.67;;
4595;SDS011;2310;49.978;8.742;2023-06-14T20:39:46;7.63;;;5.17;;
4595;SDS011;2310;49.978;8.742;2023-06-14T20:43:48;5.93;;;4.60;;
4595;SDS011;2310;49.978;8.742;2023-06-14T20:47:50;7.20;;;4.87;;
4595;SDS011;2310;49.978;8.742;2023-06-14T20:51:52;5.70;;;5.00;;
4595;SDS011;2310;49.978;8.742;2023-06-14T20:55:55;6.73;;;4.73;;
4595;SDS011;2310;49.978;8.742;2023-06-14T20:59:56;6.50;;;5.30;;
4595;SDS011;2310;49.978;8.742;2023-06-14T21:03:58;7.50;;;4.53;;
4595;SDS011;2310;49.978;8.742;2023-06-14T21:07:59;5.20;;;4.40;;
4595;SDS011;2310;49.978;8.742;2023-06-14T21:12:02;5.47;;;4.43;;
4595;SDS011;2310;49.978;8.742;2023-06-14T21:16:04;4.67;;;4.03;;
4595;SDS011;2310;49.978;8.742;2023-06-14T21:20:06;5.30;;;4.70;;
4595;SDS011;2310;49.978;8.742;2023-06-14T21:24:09;6.30;;;4.53;;
4595;SDS011;2310;49.978;8.742;2023-06-14T21:28:10;5.43;;;4.30;;
4595;SDS011;2310;49.978;8.742;2023-06-14T21:32:11;6.87;;;4.50;;
4595;SDS011;2310;49.978;8.742;2023-06-14T21:36:13;5.10;;;4.10;;
4595;SDS011;2310;49.978;8.742;2023-06-14T21:40:14;8.03;;;4.70;;
4595;SDS011;2310;49.978;8.742;2023-06-14T21:44:18;5.63;;;4.70;;
4595;SDS011;2310;49.978;8.742;2023-06-14T21:48:19;6.13;;;4.80;;
4595;SDS011;2310;49.978;8.742;2023-06-14T21:52:21;6.83;;;4.90;;
4595;SDS011;2310;49.978;8.742;2023-06-14T21:56:22;5.10;;;4.40;;
4595;SDS011;2310;49.978;8.742;2023-06-14T22:00:25;5.60;;;4.10;;
4595;SDS011;2310;49.978;8.742;2023-06-14T22:04:26;6.47;;;5.30;;
4595;SDS011;2310;49.978;8.742;2023-06-14T22:08:28;5.87;;;4.60;;
4595;SDS011;2310;49.978;8.742;2023-06-14T22:12:31;5.50;;;4.70;;
4595;SDS011;2310;49.978;8.742;2023-06-14T22:16:32;8.47;;;5.10;;
4595;SDS011;2310;49.978;8.742;2023-06-14T22:20:35;5.70;;;4.30;;
4595;SDS011;2310;49.978;8.742;2023-06-14T22:24:37;5.47;;;4.40;;
4595;SDS011;2310;49.978;8.742;2023-06-14T22:28:38;6.10;;;3.90;;
4595;SDS011;2310;49.978;8.742;2023-06-14T22:32:45;6.30;;;4.80;;
4595;SDS011;2310;49.978;8.742;2023-06-14T22:36:47;5.30;;;4.40;;
4595;SDS011;2310;49.978;8.742;2023-06-14T22:40:48;6.03;;;3.97;;
4595;SDS011;2310;49.978;8.742;2023-06-14T22:44:51;7.80;;;4.30;;
4595;SDS011;2310;49.978;8.742;2023-06-14T22:48:52;6.20;;;4.17;;
4595;SDS011;2310;49.978;8.742;2023-06-14T22:52:54;5.53;;;4.60;;
4595;SDS011;2310;49.978;8.742;2023-06-14T22:56:55;5.73;;;4.70;;
4595;SDS011;2310;49.978;8.742;2023-06-14T23:00:58;7.43;;;4.90;;
4595;SDS011;2310;49.978;8.742;2023-06-14T23:05:00;6.03;;;4.20;;
4595;SDS011;2310;49.978;8.742;2023-06-14T23:09:02;6.40;;;4.63;;
4595;SDS011;2310;49.978;8.742;2023-06-14T23:13:04;5.20;;;3.80;;
4595;SDS011;2310;49.978;8.742;2023-06-14T23:17:05;6.10;;;4.60;;
4595;SDS011;2310;49.978;8.742;2023-06-14T23:21:07;5.90;;;4.77;;
4595;SDS011;2310;49.978;8.742;2023-06-14T23:25:11;5.80;;;4.23;;
4595;SDS011;2310;49.978;8.742;2023-06-14T23:29:14;5.33;;;4.47;;
4595;SDS011;2310;49.978;8.742;2023-06-14T23:33:17;6.70;;;4.67;;
4595;SDS011;2310;49.978;8.742;2023-06-14T23:37:19;7.87;;;4.93;;
4595;SDS011;2310;49.978;8.742;2023-06-14T23:41:20;7.73;;;4.77;;
4595;SDS011;2310;49.978;8.742;2023-06-14T23:45:23;4.80;;;4.30;;
4595;SDS011;2310;49.978;8.742;2023-06-14T23:49:25;6.77;;;5.07;;
4595;SDS011;2310;49.978;8.742;2023-06-14T23:53:27;7.87;;;4.90;;
4595;SDS011;2310;49.978;8.742;2023-06-14T23:57:28;5.30;;;4.43;;
